Airfield :
LOGIN :

Register | Disclaimer

   EN    FR    IT 

 










Legend :    VFR   Marginal VFR   IFR   Intensive IFR   Very Intensive IFR
Visi :
Ceiling :
>= 8 km
>= 3000ft
5 to 8 km
1000 to 3000 ft
1500m to 5 km
500 to 1000 ft
800 to 1500m
200 to 500 ft
< 800m
< 200 ft
Symbols :   Thunderstorms  Fog  Heavy snow  Heavy precipitations  Wind > 20 kt
SIGMETs :     Misc.  Thunderstorms  Icing  Turbulence  Mountain Waves  Volcanic Ashes






- Airport Elevation : 3 ft
- IATA code : DHR


EHKD - Den Helder De Kooy

CURRENT METAR :
  • 191713Z AUTO 24013KT 9999 FEW018 SCT023 BKN027 06/03 Q1017 WHT 25016KT 9999 SCT022 BKN220

EXPIRED METARs :
  • 191708Z AUTO 24012KT 9999 FEW023 SCT027 OVC200 06/02 Q1017 BLU 25016KT 9999 SCT022 BKN220
  • 191655Z AUTO 24014KT 9999 OVC210 06/02 Q1017 BLU 25016KT 9999 SCT022 BKN220
  • 191625Z AUTO 25017KT 9999 FEW022 OVC220 06/02 Q1017 BLU 25016KT 9999 SCT022 BKN220
  • 191616Z AUTO 25017KT 9999 SCT022 SCT027 OVC220 06/02 Q1017 WHT 25016KT 9999 SCT022 BKN220
  • 191555Z AUTO 25016KT 9999 SCT021 BKN025 BKN028 06/02 Q1018 WHT 25016KT 9999 SCT022 BKN035
  • 191548Z AUTO 26016KT 9999 SCT020 BKN024 BKN028 06/03 Q1018 WHT 25016KT 9999 SCT022 BKN035
  • 191525Z AUTO 26015KT 230V290 9999 FEW019 OVC230 06/03 Q1017 BLU 29017G27KT 9999 FEW018 SCT025 BKN035
  • 191509Z AUTO 26016KT 9999 FEW020 OVC230 06/02 Q1018 BLU 29017G27KT 9999 FEW018 SCT025 BKN035
  • 191455Z AUTO 26017KT 230V290 9999 SCT020 BKN023 BKN027 07/02 Q1018 WHT 29017G27KT 9999 FEW018 SCT025 BKN035
  • 191427Z AUTO 26017KT 9999 SCT020 BKN023 BKN026 06/02 Q1018 WHT 29017G27KT 9999 FEW018 SCT025 BKN035

TAF TAF EHKD
Valid from the 19 at 14:00 until the 20 at 02:00 UTC


191315Z 1914/2002 27017KT 9999 SCT017 BKN028
BECMG 1921/1923 SCT012 BKN015
TEMPO 1922/2002 4000 RADZ SCT008 BKN010



MET'MAP, your aeronautical weather chart ! - Copyright ORBIFLY December 2007 - Disclaimer

ORBIFLY MET'MAP TEAM :

Programming & Development : Alexandra Zaïnal
Concept & original design : Baudouin d'Aumeries
Assistance for programming : Marc-Olivier Méhu
Technical & hardware support : Manuel Goepfert

Contact : metmap@orbifly.com




SOURCES & CREDITS :

   NOAA